createdAt,value
2022-09-13T00:03:28.604Z,7.2
2022-09-13T00:08:26.461Z,7.2
2022-09-13T00:13:24.447Z,7.1
2022-09-13T00:18:22.628Z,7
2022-09-13T00:23:21.039Z,7.2
2022-09-13T00:28:19.148Z,7.3
2022-09-13T00:33:17.385Z,7.6
2022-09-13T00:38:15.694Z,7.7
2022-09-13T00:43:13.802Z,7.7
2022-09-13T00:48:11.949Z,7.7
2022-09-13T00:53:09.927Z,7.6
2022-09-13T00:58:08.141Z,7.9
2022-09-13T01:03:06.281Z,7.9
2022-09-13T01:08:04.411Z,7.7
2022-09-13T01:13:02.296Z,7.5
2022-09-13T01:18:00.298Z,7.5
2022-09-13T01:22:58.465Z,7.7
2022-09-13T01:27:56.941Z,8
2022-09-13T01:32:55.228Z,8.3
2022-09-13T01:37:53.505Z,8.4
2022-09-13T01:42:51.581Z,8.5
2022-09-13T01:47:49.671Z,8.4
2022-09-13T01:52:47.329Z,8.1
2022-09-13T01:57:45.196Z,7.8
2022-09-13T02:02:43.211Z,7.7
2022-09-13T02:07:41.269Z,7.6
2022-09-13T02:12:39.338Z,7.8
2022-09-13T02:17:37.522Z,7.9
2022-09-13T02:22:35.468Z,7.9
2022-09-13T02:27:33.695Z,7.9
2022-09-13T02:32:31.816Z,7.9
2022-09-13T02:37:29.722Z,7.9
2022-09-13T02:42:27.731Z,7.7
2022-09-13T02:47:25.655Z,7.5
2022-09-13T02:52:23.340Z,7.2
2022-09-13T02:57:21.141Z,6.9
2022-09-13T03:02:19.213Z,6.8
2022-09-13T03:07:17.076Z,6.7
2022-09-13T03:12:14.950Z,6.6
2022-09-13T03:17:13.001Z,6.6
2022-09-13T03:22:10.942Z,6.4
2022-09-13T03:27:09.018Z,6.4
2022-09-13T03:32:11.093Z,6.4
2022-09-13T03:37:08.265Z,6.3
2022-09-13T03:42:06.159Z,6.2
2022-09-13T03:47:04.294Z,6.1
2022-09-13T03:52:01.989Z,6.1
2022-09-13T03:57:00.266Z,6.1
2022-09-13T04:01:58.522Z,6.2
2022-09-13T04:06:56.750Z,6.2
2022-09-13T04:11:54.912Z,6.3
2022-09-13T04:16:54.099Z,6.4
2022-09-13T04:21:52.261Z,6.4
2022-09-13T04:26:50.575Z,6.4
2022-09-13T04:31:48.400Z,6.5
2022-09-13T04:36:47.060Z,7.3
2022-09-13T04:41:45.749Z,7.8
2022-09-13T04:46:44.329Z,8.2
2022-09-13T04:51:42.814Z,8.8
2022-09-13T04:56:41.419Z,9.5
2022-09-13T05:01:40.082Z,9.9
2022-09-13T05:06:38.858Z,11
2022-09-13T05:11:37.979Z,12.2
2022-09-13T05:16:37.014Z,13.2
2022-09-13T05:21:35.980Z,14.1
2022-09-13T05:26:35.217Z,15.2
2022-09-13T05:31:34.153Z,16.4
2022-09-13T05:36:32.895Z,17.3
2022-09-13T05:41:31.736Z,18
2022-09-13T05:46:30.685Z,18.5
2022-09-13T05:51:29.265Z,19.4
2022-09-13T05:56:27.521Z,19.6
2022-09-13T06:01:26.190Z,20
2022-09-13T06:06:24.938Z,20.8
2022-09-13T06:11:23.413Z,21.5
2022-09-13T06:16:22.343Z,22.9
2022-09-13T06:21:20.691Z,23.1
2022-09-13T06:26:19.488Z,24.3
2022-09-13T06:31:17.597Z,24.3
2022-09-13T06:36:16.082Z,25.4
2022-09-13T06:41:14.572Z,26
2022-09-13T06:46:12.818Z,26.4
2022-09-13T06:51:13.590Z,26.7
2022-09-13T06:56:11.617Z,27.1
2022-09-13T07:01:09.610Z,27.2
2022-09-13T07:06:07.834Z,27.3
2022-09-13T07:11:06.234Z,27.3
2022-09-13T07:16:04.618Z,27.6
2022-09-13T07:21:03.480Z,28.9
2022-09-13T07:26:02.358Z,29.8
2022-09-13T07:31:02.107Z,31.8
2022-09-13T07:36:01.386Z,32.6
2022-09-13T07:40:59.133Z,31.7
2022-09-13T07:45:56.524Z,31.1
2022-09-13T07:50:55.003Z,31.8
2022-09-13T07:55:52.880Z,31.9
2022-09-13T08:00:52.165Z,33.1
2022-09-13T08:05:51.809Z,33.5
2022-09-13T08:10:45.264Z,25.9
2022-09-13T08:15:36.509Z,21.7
2022-09-13T08:20:33.020Z,22.2
2022-09-13T08:25:37.774Z,30.5
2022-09-13T08:30:38.283Z,31.9
2022-09-13T08:35:34.929Z,26.1
2022-09-13T08:40:28.040Z,24.4
2022-09-13T08:45:27.394Z,26.1
2022-09-13T08:50:30.904Z,30.3
2022-09-13T08:55:25.297Z,26.9
2022-09-13T09:00:22.263Z,22.9
2022-09-13T09:05:17.809Z,20.9
2022-09-13T09:10:14.273Z,19.7
2022-09-13T09:15:17.582Z,29.1
2022-09-13T09:20:20.872Z,32.5
2022-09-13T09:25:19.553Z,32.3
2022-09-13T09:30:18.243Z,32.8
2022-09-13T09:35:13.890Z,29.4
2022-09-13T09:40:14.692Z,30.8
2022-09-13T09:45:13.246Z,32.5
2022-09-13T09:50:11.259Z,32.9
2022-09-13T09:55:09.585Z,30
2022-09-13T10:00:01.471Z,23.5
2022-09-13T10:04:57.175Z,22.6
2022-09-13T10:09:54.273Z,22.2
2022-09-13T10:14:58.131Z,27.7
2022-09-13T10:19:53.985Z,24.2
2022-09-13T10:24:49.824Z,25.4
2022-09-13T10:29:53.144Z,31.2
2022-09-13T10:34:54.437Z,30.5
2022-09-13T10:39:52.512Z,32.1
2022-09-13T10:44:45.901Z,25.5
2022-09-13T10:49:43.576Z,31
2022-09-13T10:54:46.493Z,35.1
2022-09-13T10:59:45.128Z,31.2
2022-09-13T11:04:45.922Z,35
2022-09-13T11:09:44.522Z,35.1
2022-09-13T11:14:42.359Z,35.6
2022-09-13T11:19:40.299Z,35.7
2022-09-13T11:24:38.292Z,31.9
2022-09-13T11:29:32.578Z,27.3
2022-09-13T11:34:27.952Z,26.6
2022-09-13T11:39:26.562Z,30.9
2022-09-13T11:44:28.525Z,31.1
2022-09-13T11:49:25.201Z,28
2022-09-13T11:54:24.912Z,32.4
2022-09-13T11:59:24.633Z,33.2
2022-09-13T12:04:25.249Z,35.2
2022-09-13T12:09:20.827Z,36.9
2022-09-13T12:14:19.211Z,36.2
2022-09-13T12:19:17.170Z,36.1
2022-09-13T12:24:14.021Z,28.3
2022-09-13T12:29:07.163Z,24.1
2022-09-13T12:34:10.571Z,32.8
2022-09-13T12:39:05.928Z,31.2
2022-09-13T12:44:07.108Z,31.7
2022-09-13T12:49:02.598Z,26.2
2022-09-13T12:53:58.469Z,29.8
2022-09-13T12:59:00.413Z,31.5
2022-09-13T13:03:58.050Z,27
2022-09-13T13:08:53.823Z,24.8
2022-09-13T13:13:50.882Z,24.9
2022-09-13T13:18:49.376Z,24.7
2022-09-13T13:23:47.611Z,25
2022-09-13T13:28:45.516Z,25.3
2022-09-13T13:33:43.457Z,24.9
2022-09-13T13:38:40.706Z,23.5
2022-09-13T13:43:37.522Z,22.9
2022-09-13T13:48:34.813Z,22.1
2022-09-13T13:53:32.498Z,21.6
2022-09-13T13:58:30.337Z,21
2022-09-13T14:03:27.787Z,20
2022-09-13T14:08:25.902Z,20.1
2022-09-13T14:13:23.827Z,20
2022-09-13T14:18:22.580Z,20.9
2022-09-13T14:23:21.121Z,21
2022-09-13T14:28:19.356Z,20.8
2022-09-13T14:33:16.612Z,20.1
2022-09-13T14:38:14.915Z,19.6
2022-09-13T14:43:13.533Z,20
2022-09-13T14:48:11.570Z,19.6
2022-09-13T14:53:09.626Z,19.1
2022-09-13T14:58:07.736Z,18.8
2022-09-13T15:03:05.646Z,18.8
2022-09-13T15:08:03.671Z,18.8
2022-09-13T15:13:01.394Z,18.2
2022-09-13T15:17:59.474Z,18.2
2022-09-13T15:22:57.487Z,17.9
2022-09-13T15:27:55.238Z,17.5
2022-09-13T15:32:53.135Z,17.3
2022-09-13T15:37:51.126Z,17
2022-09-13T15:42:48.802Z,16.5
2022-09-13T15:47:46.852Z,16.2
2022-09-13T15:52:44.718Z,15.9
2022-09-13T15:57:42.629Z,15.4
2022-09-13T16:02:40.414Z,15.1
2022-09-13T16:07:38.231Z,14.5
2022-09-13T16:12:36.026Z,14.1
2022-09-13T16:17:33.947Z,13.8
2022-09-13T16:22:31.869Z,13.4
2022-09-13T16:27:33.291Z,13
2022-09-13T16:32:27.272Z,12.5
2022-09-13T16:37:25.081Z,12.1
2022-09-13T16:42:22.904Z,11.8
2022-09-13T16:47:20.676Z,11.6
2022-09-13T16:52:18.443Z,11.4
2022-09-13T16:57:16.402Z,11.2
2022-09-13T17:02:14.198Z,10.9
2022-09-13T17:07:11.961Z,10.8
2022-09-13T17:12:09.896Z,10.7
2022-09-13T17:17:07.868Z,10.7
2022-09-13T17:22:05.716Z,10.5
2022-09-13T17:27:03.737Z,10.4
2022-09-13T17:32:01.689Z,10.4
2022-09-13T17:37:00.033Z,10.4
2022-09-13T17:41:58.340Z,10.4
2022-09-13T17:46:56.425Z,10.3
2022-09-13T17:51:54.252Z,10.3
2022-09-13T17:56:52.350Z,10.2
2022-09-13T18:01:50.337Z,10.2
2022-09-13T18:06:48.258Z,10.1
2022-09-13T18:11:46.113Z,10
2022-09-13T18:16:43.939Z,9.9
2022-09-13T18:21:41.769Z,9.8
2022-09-13T18:26:39.839Z,9.6
2022-09-13T18:31:37.831Z,9.5
2022-09-13T18:36:35.741Z,9.3
2022-09-13T18:41:33.662Z,9.3
2022-09-13T18:46:31.852Z,9.4
2022-09-13T18:51:29.601Z,9.3
2022-09-13T18:56:27.467Z,9.2
2022-09-13T19:01:25.569Z,9.1
2022-09-13T19:06:23.621Z,9.1
2022-09-13T19:11:42.508Z,9
2022-09-13T19:16:19.580Z,9.1
2022-09-13T19:21:17.203Z,8.9
2022-09-13T19:26:15.188Z,8.9
2022-09-13T19:31:13.192Z,8.8
2022-09-13T19:36:11.271Z,8.8
2022-09-13T19:41:09.182Z,8.7
2022-09-13T19:46:07.136Z,8.5
2022-09-13T19:51:04.983Z,8.4
2022-09-13T19:56:03.253Z,8.4
2022-09-13T20:01:01.246Z,8.4
2022-09-13T20:05:59.342Z,8.3
2022-09-13T20:10:57.238Z,8.2
2022-09-13T20:15:55.248Z,8.3
2022-09-13T20:20:53.381Z,8.4
2022-09-13T20:25:51.568Z,8.3
2022-09-13T20:30:49.766Z,8.1
2022-09-13T20:35:51.359Z,8
2022-09-13T20:40:52.569Z,8
2022-09-13T20:45:49.845Z,8
2022-09-13T20:50:47.861Z,7.9
2022-09-13T20:55:46.202Z,7.9
2022-09-13T21:00:44.377Z,7.8
2022-09-13T21:05:42.459Z,7.8
2022-09-13T21:10:40.518Z,7.6
2022-09-13T21:15:38.723Z,7.6
2022-09-13T21:20:36.687Z,7.7
2022-09-13T21:25:34.736Z,7.6
2022-09-13T21:30:32.897Z,7.6
2022-09-13T21:35:30.956Z,7.4
2022-09-13T21:40:29.067Z,7.4
2022-09-13T21:45:27.042Z,7.4
2022-09-13T21:50:24.954Z,7.2
2022-09-13T21:55:23.227Z,7.2
2022-09-13T22:00:21.242Z,7.2
2022-09-13T22:05:19.413Z,7.1
2022-09-13T22:10:17.520Z,7.2
2022-09-13T22:15:16.188Z,7.1
2022-09-13T22:20:14.373Z,7.1
2022-09-13T22:25:12.628Z,7
2022-09-13T22:30:10.740Z,6.9
2022-09-13T22:35:09.235Z,7
2022-09-13T22:40:07.534Z,6.9
2022-09-13T22:45:05.648Z,6.8
2022-09-13T22:50:03.567Z,6.8
2022-09-13T22:55:01.976Z,6.8
2022-09-13T22:59:59.928Z,6.9
2022-09-13T23:04:58.082Z,6.9
2022-09-13T23:09:58.555Z,6.8
2022-09-13T23:14:56.553Z,6.7
2022-09-13T23:19:54.529Z,6.7
2022-09-13T23:24:52.716Z,6.8
2022-09-13T23:29:50.659Z,6.7
2022-09-13T23:34:48.736Z,6.6
2022-09-13T23:39:46.911Z,6.6
2022-09-13T23:44:44.945Z,6.6
2022-09-13T23:49:42.881Z,6.6
2022-09-13T23:54:41.017Z,6.4
2022-09-13T23:59:38.695Z,6.2
